createdAt,value
2023-04-11T00:00:52.720Z,0
2023-04-11T00:01:52.845Z,0
2023-04-11T00:02:52.901Z,0
2023-04-11T00:03:52.987Z,0
2023-04-11T00:04:52.737Z,0
2023-04-11T00:05:52.709Z,0
2023-04-11T00:06:52.726Z,0
2023-04-11T00:07:52.691Z,0
2023-04-11T00:08:52.836Z,0
2023-04-11T00:09:52.698Z,0
2023-04-11T00:10:52.701Z,0
2023-04-11T00:11:52.692Z,0
2023-04-11T00:12:52.695Z,0
2023-04-11T00:13:52.684Z,0
2023-04-11T00:14:52.694Z,0
2023-04-11T00:15:52.698Z,0
2023-04-11T00:16:52.855Z,0
2023-04-11T00:17:52.832Z,0
2023-04-11T00:18:52.940Z,0
2023-04-11T00:19:52.689Z,0
2023-04-11T00:20:52.711Z,0
2023-04-11T00:21:52.704Z,0
2023-04-11T00:22:52.687Z,0
2023-04-11T00:23:52.693Z,0
2023-04-11T00:24:52.702Z,0
2023-04-11T00:25:52.690Z,0
2023-04-11T00:26:52.685Z,0
2023-04-11T00:27:52.681Z,0
2023-04-11T00:28:53.032Z,0
2023-04-11T00:29:52.680Z,0
2023-04-11T00:30:52.711Z,0
2023-04-11T00:31:52.808Z,0
2023-04-11T00:32:52.735Z,0
2023-04-11T00:33:52.700Z,0
2023-04-11T00:34:52.678Z,0
2023-04-11T00:35:52.786Z,0
2023-04-11T00:36:52.733Z,0
2023-04-11T00:37:52.694Z,0
2023-04-11T00:38:52.671Z,0
2023-04-11T00:39:52.885Z,0
2023-04-11T00:40:52.717Z,0
2023-04-11T00:41:52.690Z,0
2023-04-11T00:42:52.677Z,0
2023-04-11T00:43:52.681Z,0
2023-04-11T00:44:52.675Z,0
2023-04-11T00:45:52.829Z,0
2023-04-11T00:46:52.678Z,0
2023-04-11T00:47:52.713Z,0
2023-04-11T00:48:52.709Z,0
2023-04-11T00:49:52.675Z,0
2023-04-11T00:50:52.697Z,0
2023-04-11T00:51:52.686Z,0
2023-04-11T00:52:52.686Z,0
2023-04-11T00:53:52.716Z,0
2023-04-11T00:54:52.699Z,0
2023-04-11T00:55:52.704Z,0
2023-04-11T00:56:52.686Z,0
2023-04-11T00:57:52.691Z,0
2023-04-11T00:58:52.887Z,0
2023-04-11T00:59:52.675Z,0
2023-04-11T01:00:52.760Z,0
2023-04-11T01:01:52.895Z,0
2023-04-11T01:02:52.993Z,0
2023-04-11T01:03:52.756Z,0
2023-04-11T01:04:52.689Z,0
2023-04-11T01:05:52.699Z,0
2023-04-11T01:06:52.689Z,0
2023-04-11T01:07:52.696Z,0
2023-04-11T01:08:52.979Z,0
2023-04-11T01:09:52.709Z,0
2023-04-11T01:10:52.693Z,0
2023-04-11T01:11:52.689Z,0
2023-04-11T01:12:52.687Z,0
2023-04-11T01:13:52.710Z,0
2023-04-11T01:14:52.689Z,0
2023-04-11T01:15:52.700Z,0
2023-04-11T01:16:52.810Z,0
2023-04-11T01:17:52.835Z,0
2023-04-11T01:18:52.920Z,0
2023-04-11T01:19:52.693Z,0
2023-04-11T01:20:52.705Z,0
2023-04-11T01:21:52.716Z,0
2023-04-11T01:22:52.691Z,0
2023-04-11T01:23:52.740Z,0
2023-04-11T01:24:52.699Z,0
2023-04-11T01:25:52.703Z,0
2023-04-11T01:26:52.711Z,0
2023-04-11T01:27:52.682Z,0
2023-04-11T01:28:52.850Z,0
2023-04-11T01:29:52.732Z,0
2023-04-11T01:30:52.828Z,0
2023-04-11T01:31:52.691Z,0
2023-04-11T01:32:52.711Z,0
2023-04-11T01:33:52.699Z,0
2023-04-11T01:34:52.692Z,0
2023-04-11T01:35:52.744Z,0
2023-04-11T01:36:52.689Z,0
2023-04-11T01:37:52.704Z,0
2023-04-11T01:38:52.773Z,0
2023-04-11T01:39:52.699Z,0
2023-04-11T01:40:52.699Z,0
2023-04-11T01:41:52.695Z,0
2023-04-11T01:42:52.695Z,0
2023-04-11T01:43:52.683Z,0
2023-04-11T01:44:52.680Z,0
2023-04-11T01:45:52.703Z,0
2023-04-11T01:46:52.693Z,0
2023-04-11T01:47:52.841Z,0
2023-04-11T01:48:52.875Z,0
2023-04-11T01:49:52.698Z,0
2023-04-11T01:50:52.695Z,0
2023-04-11T01:51:52.744Z,0
2023-04-11T01:52:52.729Z,0
2023-04-11T01:53:52.710Z,0
2023-04-11T01:54:52.705Z,0
2023-04-11T01:55:52.685Z,0
2023-04-11T01:56:52.718Z,0
2023-04-11T01:57:52.710Z,0
2023-04-11T01:58:52.732Z,0
2023-04-11T01:59:52.675Z,0
2023-04-11T02:00:52.715Z,0
2023-04-11T02:01:52.854Z,0
2023-04-11T02:02:52.899Z,0
2023-04-11T02:04:52.685Z,0
2023-04-11T02:05:52.698Z,0
2023-04-11T02:06:52.683Z,0
2023-04-11T02:07:52.706Z,0
2023-04-11T02:08:52.852Z,0
2023-04-11T02:09:52.693Z,0
2023-04-11T02:10:52.695Z,0
2023-04-11T02:11:52.689Z,0
2023-04-11T02:12:52.701Z,0
2023-04-11T02:13:52.677Z,0
2023-04-11T02:14:52.710Z,0
2023-04-11T02:15:52.796Z,0
2023-04-11T02:16:52.685Z,0
2023-04-11T02:17:52.721Z,0
2023-04-11T02:18:52.758Z,0
2023-04-11T02:19:52.705Z,0
2023-04-11T02:20:52.724Z,0
2023-04-11T02:21:52.683Z,0
2023-04-11T02:22:52.674Z,0
2023-04-11T02:23:52.722Z,0
2023-04-11T02:24:52.709Z,0
2023-04-11T02:25:52.694Z,0
2023-04-11T02:26:52.682Z,0
2023-04-11T02:27:52.683Z,0
2023-04-11T02:28:52.800Z,0
2023-04-11T02:29:52.702Z,0
2023-04-11T02:30:52.742Z,0
2023-04-11T02:31:52.753Z,0
2023-04-11T02:32:52.925Z,0
2023-04-11T02:33:52.686Z,0
2023-04-11T02:34:52.686Z,0
2023-04-11T02:35:52.809Z,0
2023-04-11T02:36:52.685Z,0
2023-04-11T02:37:52.687Z,0
2023-04-11T02:38:52.699Z,0
2023-04-11T02:39:52.705Z,0
2023-04-11T02:40:52.696Z,0
2023-04-11T02:41:52.683Z,0
2023-04-11T02:42:52.671Z,0
2023-04-11T02:43:52.678Z,0
2023-04-11T02:44:52.682Z,0
2023-04-11T02:46:05.634Z,0
2023-04-11T02:46:52.785Z,0
2023-04-11T02:47:52.827Z,0
2023-04-11T02:48:52.676Z,0
2023-04-11T02:49:52.674Z,0
2023-04-11T02:50:52.696Z,0
2023-04-11T02:51:52.682Z,0
2023-04-11T02:52:52.696Z,0
2023-04-11T02:53:52.690Z,0
2023-04-11T02:54:52.690Z,0
2023-04-11T02:55:52.733Z,0
2023-04-11T02:56:52.727Z,0
2023-04-11T02:57:52.671Z,0
2023-04-11T02:58:52.687Z,0
2023-04-11T02:59:52.688Z,0
2023-04-11T03:00:52.711Z,0
2023-04-11T03:01:52.824Z,0
2023-04-11T03:02:52.764Z,0
2023-04-11T03:03:52.798Z,0
2023-04-11T03:04:52.703Z,0
2023-04-11T03:05:52.700Z,0
2023-04-11T03:06:52.677Z,0
2023-04-11T03:07:52.666Z,0
2023-04-11T03:08:52.868Z,0
2023-04-11T03:09:52.712Z,0
2023-04-11T03:10:52.724Z,0
2023-04-11T03:11:52.713Z,0
2023-04-11T03:12:52.682Z,0
2023-04-11T03:13:52.677Z,0
2023-04-11T03:14:52.682Z,0
2023-04-11T03:15:52.697Z,0
2023-04-11T03:16:52.690Z,0
2023-04-11T03:17:52.796Z,0
2023-04-11T03:18:52.822Z,0
2023-04-11T03:19:52.689Z,0
2023-04-11T03:20:52.729Z,0
2023-04-11T03:21:52.689Z,0
2023-04-11T03:22:52.705Z,0
2023-04-11T03:23:52.680Z,0
2023-04-11T03:24:52.703Z,0
2023-04-11T03:25:52.693Z,0
2023-04-11T03:26:52.686Z,0
2023-04-11T03:27:52.714Z,0
2023-04-11T03:28:52.792Z,0
2023-04-11T03:29:52.681Z,0
2023-04-11T03:30:52.704Z,0
2023-04-11T03:31:52.694Z,0
2023-04-11T03:32:52.890Z,0
2023-04-11T03:33:52.713Z,0
2023-04-11T03:34:52.681Z,0
2023-04-11T03:35:52.731Z,0
2023-04-11T03:36:52.713Z,0
2023-04-11T03:37:52.758Z,0
2023-04-11T03:38:52.775Z,0
2023-04-11T03:39:52.708Z,0
2023-04-11T03:40:52.706Z,0
2023-04-11T03:41:52.692Z,0
2023-04-11T03:42:52.678Z,0
2023-04-11T03:43:52.713Z,0
2023-04-11T03:44:52.692Z,0
2023-04-11T03:45:52.700Z,0
2023-04-11T03:46:52.805Z,0
2023-04-11T03:47:52.718Z,0
2023-04-11T03:48:52.698Z,0
2023-04-11T03:49:52.691Z,0
2023-04-11T03:50:52.712Z,0
2023-04-11T03:51:52.677Z,0
2023-04-11T03:52:52.699Z,0
2023-04-11T03:53:52.774Z,0
2023-04-11T03:54:52.700Z,0
2023-04-11T03:55:52.762Z,0
2023-04-11T03:56:52.691Z,0
2023-04-11T03:57:52.711Z,0
2023-04-11T03:58:52.844Z,0
2023-04-11T03:59:52.685Z,1
2023-04-11T04:00:52.711Z,1
2023-04-11T04:01:52.776Z,1
2023-04-11T04:02:52.946Z,3
2023-04-11T04:03:52.965Z,3
2023-04-11T04:04:52.836Z,5
2023-04-11T04:05:52.729Z,5
2023-04-11T04:06:52.682Z,7
2023-04-11T04:07:54.595Z,7
2023-04-11T04:08:52.701Z,9
2023-04-11T04:09:52.718Z,11
2023-04-11T04:10:52.728Z,12
2023-04-11T04:11:52.681Z,16
2023-04-11T04:12:52.696Z,18
2023-04-11T04:13:52.739Z,22
2023-04-11T04:14:52.698Z,27
2023-04-11T04:15:52.711Z,29
2023-04-11T04:16:52.730Z,29
2023-04-11T04:17:52.692Z,29
2023-04-11T04:18:52.720Z,29
2023-04-11T04:19:52.681Z,31
2023-04-11T04:20:52.703Z,33
2023-04-11T04:21:52.722Z,35
2023-04-11T04:22:52.689Z,38
2023-04-11T04:23:52.675Z,42
2023-04-11T04:24:52.697Z,44
2023-04-11T04:25:52.706Z,46
2023-04-11T04:26:52.686Z,47
2023-04-11T04:27:52.684Z,49
2023-04-11T04:28:52.683Z,51
2023-04-11T04:30:03.510Z,55
2023-04-11T04:30:52.696Z,58
2023-04-11T04:31:52.826Z,62
2023-04-11T04:32:52.745Z,66
2023-04-11T04:33:52.685Z,71
2023-04-11T04:34:52.689Z,77
2023-04-11T04:35:52.804Z,82
2023-04-11T04:36:52.683Z,88
2023-04-11T04:37:52.699Z,92
2023-04-11T04:38:52.694Z,97
2023-04-11T04:39:52.853Z,99
2023-04-11T04:40:52.720Z,103
2023-04-11T04:41:52.681Z,106
2023-04-11T04:42:52.684Z,108
2023-04-11T04:43:52.688Z,108
2023-04-11T04:44:52.691Z,112
2023-04-11T04:45:52.741Z,112
2023-04-11T04:46:52.689Z,121
2023-04-11T04:47:52.830Z,125
2023-04-11T04:48:52.729Z,129
2023-04-11T04:49:52.690Z,129
2023-04-11T04:50:52.691Z,132
2023-04-11T04:51:52.680Z,140
2023-04-11T04:52:52.695Z,147
2023-04-11T04:53:52.695Z,158
2023-04-11T04:54:52.696Z,171
2023-04-11T04:55:52.727Z,186
2023-04-11T04:56:52.719Z,200
2023-04-11T04:57:52.700Z,217
2023-04-11T04:58:52.706Z,232
2023-04-11T04:59:52.689Z,243
2023-04-11T05:00:52.800Z,248
2023-04-11T05:01:52.980Z,254
2023-04-11T05:02:52.857Z,256
2023-04-11T05:03:52.782Z,261
2023-04-11T05:04:52.690Z,267
2023-04-11T05:05:52.726Z,272
2023-04-11T05:06:52.682Z,283
2023-04-11T05:07:52.699Z,294
2023-04-11T05:08:52.681Z,307
2023-04-11T05:09:52.698Z,320
2023-04-11T05:10:52.716Z,335
2023-04-11T05:11:52.679Z,342
2023-04-11T05:12:52.670Z,352
2023-04-11T05:13:52.696Z,357
2023-04-11T05:14:52.683Z,364
2023-04-11T05:15:52.702Z,374
2023-04-11T05:16:52.758Z,388
2023-04-11T05:17:52.730Z,396
2023-04-11T05:18:52.678Z,399
2023-04-11T05:19:52.698Z,407
2023-04-11T05:20:52.715Z,418
2023-04-11T05:21:52.727Z,429
2023-04-11T05:22:52.683Z,444
2023-04-11T05:23:52.709Z,457
2023-04-11T05:24:52.738Z,475
2023-04-11T05:25:52.695Z,495
2023-04-11T05:26:52.710Z,517
2023-04-11T05:27:52.673Z,532
2023-04-11T05:28:52.687Z,536
2023-04-11T05:29:52.681Z,530
2023-04-11T05:30:52.718Z,527
2023-04-11T05:31:52.701Z,532
2023-04-11T05:32:52.791Z,552
2023-04-11T05:33:52.693Z,576
2023-04-11T05:34:52.707Z,602
2023-04-11T05:35:52.729Z,619
2023-04-11T05:36:52.675Z,630
2023-04-11T05:37:52.699Z,635
2023-04-11T05:38:52.684Z,639
2023-04-11T05:39:52.795Z,635
2023-04-11T05:40:52.741Z,635
2023-04-11T05:41:52.685Z,646
2023-04-11T05:42:52.688Z,663
2023-04-11T05:43:52.695Z,700
2023-04-11T05:44:52.690Z,763
2023-04-11T05:45:52.761Z,763
2023-04-11T05:46:52.679Z,949
2023-04-11T05:47:52.743Z,1046
2023-04-11T05:48:52.692Z,1124
2023-04-11T05:49:52.715Z,1190
2023-04-11T05:50:52.742Z,1233
2023-04-11T05:51:52.706Z,1262
2023-04-11T05:52:52.701Z,1277
2023-04-11T05:53:52.672Z,1292
2023-04-11T05:54:52.728Z,1312
2023-04-11T05:55:52.766Z,1343
2023-04-11T05:56:52.722Z,1384
2023-04-11T05:57:52.689Z,1428
2023-04-11T05:58:52.724Z,1480
2023-04-11T05:59:52.686Z,1522
2023-04-11T06:00:52.703Z,1544
2023-04-11T06:01:52.711Z,1522
2023-04-11T06:02:52.732Z,1457
2023-04-11T06:03:52.965Z,1367
2023-04-11T06:04:52.720Z,1271
2023-04-11T06:05:52.701Z,1205
2023-04-11T06:06:52.695Z,1175
2023-04-11T06:07:52.681Z,1164
2023-04-11T06:08:52.691Z,1175
2023-04-11T06:09:52.696Z,1209
2023-04-11T06:10:52.688Z,1260
2023-04-11T06:11:52.680Z,1345
2023-04-11T06:12:52.667Z,1417
2023-04-11T06:13:52.679Z,1470
2023-04-11T06:14:52.682Z,1496
2023-04-11T06:15:52.821Z,1483
2023-04-11T06:16:52.700Z,1424
2023-04-11T06:17:52.752Z,1347
2023-04-11T06:18:52.698Z,1275
2023-04-11T06:19:52.679Z,1175
2023-04-11T06:20:52.705Z,1111
2023-04-11T06:21:52.685Z,1058
2023-04-11T06:22:52.691Z,1022
2023-04-11T06:23:52.670Z,982
2023-04-11T06:24:52.703Z,923
2023-04-11T06:25:52.698Z,881
2023-04-11T06:26:52.680Z,838
2023-04-11T06:27:52.694Z,799
2023-04-11T06:28:52.684Z,799
2023-04-11T06:29:52.689Z,757
2023-04-11T06:30:52.748Z,740
2023-04-11T06:31:52.685Z,746
2023-04-11T06:32:52.832Z,796
2023-04-11T06:33:52.707Z,858
2023-04-11T06:34:52.692Z,978
2023-04-11T06:35:52.756Z,1102
2023-04-11T06:36:52.731Z,1220
2023-04-11T06:37:52.745Z,1286
2023-04-11T06:38:52.695Z,1260
2023-04-11T06:39:52.696Z,1194
2023-04-11T06:40:52.716Z,1115
2023-04-11T06:41:52.695Z,1037
2023-04-11T06:42:52.680Z,975
2023-04-11T06:43:52.687Z,930
2023-04-11T06:44:52.686Z,906
2023-04-11T06:45:52.709Z,897
2023-04-11T06:46:52.737Z,879
2023-04-11T06:47:52.797Z,947
2023-04-11T06:48:52.688Z,1008
2023-04-11T06:49:52.691Z,1022
2023-04-11T06:50:52.737Z,1019
2023-04-11T06:51:52.722Z,936
2023-04-11T06:52:52.706Z,827
2023-04-11T06:53:52.682Z,775
2023-04-11T06:54:52.717Z,755
2023-04-11T06:55:52.704Z,733
2023-04-11T06:56:52.689Z,777
2023-04-11T06:57:52.690Z,799
2023-04-11T06:58:52.687Z,919
2023-04-11T06:59:52.682Z,940
2023-04-11T07:00:52.704Z,956
2023-04-11T07:01:52.804Z,956
2023-04-11T07:02:53.024Z,999
2023-04-11T07:03:52.802Z,987
2023-04-11T07:04:52.867Z,973
2023-04-11T07:05:52.706Z,938
2023-04-11T07:06:52.684Z,897
2023-04-11T07:07:52.686Z,899
2023-04-11T07:08:52.695Z,903
2023-04-11T07:09:52.700Z,908
2023-04-11T07:10:52.697Z,895
2023-04-11T07:11:52.719Z,882
2023-04-11T07:12:52.689Z,897
2023-04-11T07:13:52.701Z,910
2023-04-11T07:14:52.687Z,956
2023-04-11T07:15:52.709Z,1065
2023-04-11T07:16:52.692Z,1231
2023-04-11T07:17:53.066Z,1380
2023-04-11T07:18:52.690Z,1507
2023-04-11T07:19:52.698Z,1634
2023-04-11T07:20:52.690Z,1762
2023-04-11T07:21:52.683Z,1848
2023-04-11T07:22:52.685Z,1880
2023-04-11T07:23:52.702Z,1863
2023-04-11T07:24:52.715Z,1804
2023-04-11T07:25:52.700Z,1815
2023-04-11T07:26:52.689Z,1935
2023-04-11T07:27:52.699Z,2092
2023-04-11T07:28:52.686Z,2092
2023-04-11T07:29:52.689Z,2068
2023-04-11T07:30:52.710Z,1963
2023-04-11T07:31:52.780Z,1754
2023-04-11T07:32:52.748Z,1585
2023-04-11T07:33:52.690Z,1422
2023-04-11T07:34:52.682Z,1400
2023-04-11T07:35:52.744Z,1421
2023-04-11T07:36:52.692Z,1450
2023-04-11T07:37:52.692Z,1505
2023-04-11T07:38:52.690Z,1566
2023-04-11T07:39:52.696Z,1590
2023-04-11T07:40:52.706Z,1592
2023-04-11T07:41:52.691Z,1551
2023-04-11T07:42:52.690Z,1456
2023-04-11T07:43:52.712Z,1354
2023-04-11T07:44:52.686Z,1286
2023-04-11T07:45:52.780Z,1210
2023-04-11T07:46:52.700Z,1109
2023-04-11T07:47:52.712Z,1028
2023-04-11T07:48:52.681Z,965
2023-04-11T07:49:52.681Z,934
2023-04-11T07:50:52.696Z,916
2023-04-11T07:51:52.696Z,855
2023-04-11T07:52:52.681Z,790
2023-04-11T07:53:52.694Z,717
2023-04-11T07:54:52.697Z,693
2023-04-11T07:55:52.691Z,689
2023-04-11T07:56:52.683Z,715
2023-04-11T07:57:52.686Z,809
2023-04-11T07:58:52.675Z,949
2023-04-11T07:59:52.673Z,1026
2023-04-11T08:00:52.702Z,1091
2023-04-11T08:01:52.798Z,1188
2023-04-11T08:02:52.826Z,1234
2023-04-11T08:03:52.819Z,1185
2023-04-11T08:04:52.849Z,1244
2023-04-11T08:05:52.698Z,1478
2023-04-11T08:06:52.681Z,1623
2023-04-11T08:07:52.671Z,1568
2023-04-11T08:08:52.713Z,1572
2023-04-11T08:09:52.688Z,1634
2023-04-11T08:10:52.685Z,1647
2023-04-11T08:11:52.692Z,1671
2023-04-11T08:12:52.677Z,1681
2023-04-11T08:13:52.681Z,1723
2023-04-11T08:14:52.685Z,1832
2023-04-11T08:15:52.701Z,2071
2023-04-11T08:16:53.179Z,2254
2023-04-11T08:17:52.727Z,2473
2023-04-11T08:18:52.696Z,2751
2023-04-11T08:19:52.692Z,3028
2023-04-11T08:20:52.696Z,3194
2023-04-11T08:21:52.736Z,3522
2023-04-11T08:22:52.685Z,3673
2023-04-11T08:23:52.690Z,3448
2023-04-11T08:24:52.719Z,2882
2023-04-11T08:25:52.709Z,2657
2023-04-11T08:26:52.702Z,2989
2023-04-11T08:27:52.756Z,3443
2023-04-11T08:28:52.691Z,3443
2023-04-11T08:29:52.696Z,3028
2023-04-11T08:30:52.770Z,2910
2023-04-11T08:31:52.690Z,3079
2023-04-11T08:32:52.721Z,2932
2023-04-11T08:33:52.688Z,2716
2023-04-11T08:34:52.688Z,2678
2023-04-11T08:35:52.762Z,2777
2023-04-11T08:36:52.705Z,2680
2023-04-11T08:37:52.692Z,2659
2023-04-11T08:38:52.688Z,2670
2023-04-11T08:39:52.713Z,2750
2023-04-11T08:40:52.705Z,2737
2023-04-11T08:41:52.702Z,2727
2023-04-11T08:42:52.693Z,2709
2023-04-11T08:43:52.695Z,2722
2023-04-11T08:44:52.832Z,2711
2023-04-11T08:45:52.789Z,2705
2023-04-11T08:46:52.704Z,2672
2023-04-11T08:47:52.707Z,2646
2023-04-11T08:48:52.678Z,2611
2023-04-11T08:49:52.673Z,2580
2023-04-11T08:50:52.697Z,2554
2023-04-11T08:51:52.686Z,2541
2023-04-11T08:52:52.691Z,2538
2023-04-11T08:53:52.680Z,2510
2023-04-11T08:54:52.700Z,2456
2023-04-11T08:55:52.695Z,2421
2023-04-11T08:56:52.737Z,2398
2023-04-11T08:57:52.678Z,2394
2023-04-11T08:58:52.687Z,2431
2023-04-11T08:59:52.686Z,2473
2023-04-11T09:00:52.693Z,2532
2023-04-11T09:01:52.812Z,2617
2023-04-11T09:02:52.839Z,2703
2023-04-11T09:03:52.701Z,2755
2023-04-11T09:04:52.755Z,2762
2023-04-11T09:05:52.693Z,2750
2023-04-11T09:06:52.684Z,2731
2023-04-11T09:07:52.671Z,2746
2023-04-11T09:08:52.686Z,2809
2023-04-11T09:09:52.698Z,2845
2023-04-11T09:10:52.702Z,2901
2023-04-11T09:11:52.711Z,2969
2023-04-11T09:12:52.696Z,3008
2023-04-11T09:13:52.740Z,3098
2023-04-11T09:14:52.746Z,3159
2023-04-11T09:15:52.792Z,3244
2023-04-11T09:16:52.693Z,3301
2023-04-11T09:17:52.790Z,3374
2023-04-11T09:18:52.685Z,3389
2023-04-11T09:19:52.688Z,3330
2023-04-11T09:20:52.696Z,3227
2023-04-11T09:21:52.692Z,3138
2023-04-11T09:22:52.702Z,3009
2023-04-11T09:23:52.686Z,2816
2023-04-11T09:24:52.703Z,2587
2023-04-11T09:25:52.698Z,2379
2023-04-11T09:26:52.691Z,2204
2023-04-11T09:27:52.676Z,2104
2023-04-11T09:28:52.734Z,2104
2023-04-11T09:29:52.676Z,2263
2023-04-11T09:30:52.795Z,2547
2023-04-11T09:31:52.693Z,2936
2023-04-11T09:32:52.824Z,3323
2023-04-11T09:33:52.706Z,3596
2023-04-11T09:34:52.680Z,3769
2023-04-11T09:35:52.785Z,3863
2023-04-11T09:36:52.688Z,3863
2023-04-11T09:37:52.674Z,3933
2023-04-11T09:38:52.708Z,3784
2023-04-11T09:39:52.702Z,3581
2023-04-11T09:40:52.699Z,3404
2023-04-11T09:41:52.718Z,3339
2023-04-11T09:42:52.698Z,3308
2023-04-11T09:43:52.693Z,3326
2023-04-11T09:44:52.696Z,3356
2023-04-11T09:45:54.764Z,3422
2023-04-11T09:46:52.779Z,3548
2023-04-11T09:47:52.785Z,3701
2023-04-11T09:48:52.692Z,3872
2023-04-11T09:49:52.705Z,4036
2023-04-11T09:50:52.686Z,4222
2023-04-11T09:51:52.686Z,4460
2023-04-11T09:52:52.702Z,4641
2023-04-11T09:53:52.735Z,4819
2023-04-11T09:54:52.704Z,4943
2023-04-11T09:55:52.684Z,5059
2023-04-11T09:56:52.713Z,5229
2023-04-11T09:57:52.688Z,5422
2023-04-11T09:58:52.812Z,5688
2023-04-11T09:59:52.681Z,6038
2023-04-11T10:00:52.706Z,6464
2023-04-11T10:01:52.725Z,6475
2023-04-11T10:02:53.084Z,6524
2023-04-11T10:03:53.012Z,6696
2023-04-11T10:04:52.784Z,6932
2023-04-11T10:05:52.705Z,7033
2023-04-11T10:06:52.686Z,6956
2023-04-11T10:07:52.693Z,6912
2023-04-11T10:08:52.704Z,6963
2023-04-11T10:09:52.690Z,6790
2023-04-11T10:10:52.700Z,6576
2023-04-11T10:11:52.685Z,6338
2023-04-11T10:12:52.694Z,6241
2023-04-11T10:13:52.698Z,6211
2023-04-11T10:14:52.709Z,6220
2023-04-11T10:15:52.693Z,6342
2023-04-11T10:16:52.689Z,6451
2023-04-11T10:17:52.754Z,6556
2023-04-11T10:18:52.691Z,6690
2023-04-11T10:19:52.680Z,6956
2023-04-11T10:20:52.702Z,7472
2023-04-11T10:21:52.683Z,8111
2023-04-11T10:22:52.681Z,8585
2023-04-11T10:23:52.685Z,9105
2023-04-11T10:24:52.697Z,9503
2023-04-11T10:25:52.709Z,8229
2023-04-11T10:26:52.708Z,6655
2023-04-11T10:27:52.682Z,5599
2023-04-11T10:28:52.693Z,5177
2023-04-11T10:29:52.688Z,4858
2023-04-11T10:30:52.814Z,4477
2023-04-11T10:31:52.849Z,4123
2023-04-11T10:32:52.741Z,3747
2023-04-11T10:33:52.692Z,3608
2023-04-11T10:34:52.697Z,3846
2023-04-11T10:35:52.761Z,4228
2023-04-11T10:36:52.703Z,4228
2023-04-11T10:37:52.685Z,4255
2023-04-11T10:38:52.690Z,4278
2023-04-11T10:39:52.706Z,4178
2023-04-11T10:40:52.700Z,4195
2023-04-11T10:41:52.686Z,4668
2023-04-11T10:42:52.700Z,5439
2023-04-11T10:43:52.681Z,5741
2023-04-11T10:44:52.693Z,5708
2023-04-11T10:45:52.718Z,5706
2023-04-11T10:46:52.787Z,5607
2023-04-11T10:47:52.827Z,4926
2023-04-11T10:48:52.694Z,4036
2023-04-11T10:49:52.692Z,3511
2023-04-11T10:50:52.698Z,3314
2023-04-11T10:51:52.685Z,3478
2023-04-11T10:52:52.693Z,3714
2023-04-11T10:53:52.685Z,3780
2023-04-11T10:54:52.759Z,3820
2023-04-11T10:55:52.702Z,3802
2023-04-11T10:56:52.685Z,3621
2023-04-11T10:57:52.680Z,3673
2023-04-11T10:58:52.688Z,4241
2023-04-11T10:59:52.690Z,5028
2023-04-11T11:00:52.781Z,5691
2023-04-11T11:01:52.795Z,5769
2023-04-11T11:02:52.892Z,6006
2023-04-11T11:03:52.822Z,6423
2023-04-11T11:04:52.837Z,6242
2023-04-11T11:05:52.685Z,6252
2023-04-11T11:06:56.993Z,7732
2023-04-11T11:07:52.676Z,10150
2023-04-11T11:08:52.677Z,10043
2023-04-11T11:09:52.701Z,14227
2023-04-11T11:10:52.694Z,13567
2023-04-11T11:11:52.677Z,12087
2023-04-11T11:12:52.692Z,10497
2023-04-11T11:13:52.679Z,9116
2023-04-11T11:14:52.686Z,9164
2023-04-11T11:15:52.713Z,9088
2023-04-11T11:16:52.714Z,9717
2023-04-11T11:17:52.804Z,9579
2023-04-11T11:18:52.702Z,10073
2023-04-11T11:19:52.680Z,10861
2023-04-11T11:20:52.693Z,11503
2023-04-11T11:21:52.698Z,11280
2023-04-11T11:22:52.682Z,11018
2023-04-11T11:23:52.681Z,11409
2023-04-11T11:24:52.704Z,12152
2023-04-11T11:25:52.715Z,14072
2023-04-11T11:26:52.681Z,12638
2023-04-11T11:27:52.685Z,16410
2023-04-11T11:28:52.692Z,16909
2023-04-11T11:29:53.208Z,14010
2023-04-11T11:30:54.961Z,15095
2023-04-11T11:31:52.710Z,16719
2023-04-11T11:32:52.747Z,16236
2023-04-11T11:33:53.981Z,18218
2023-04-11T11:34:52.696Z,18262
2023-04-11T11:35:52.737Z,19561
2023-04-11T11:36:53.023Z,19561
2023-04-11T11:37:52.684Z,16502
2023-04-11T11:38:52.687Z,15704
2023-04-11T11:39:52.711Z,18796
2023-04-11T11:40:52.700Z,19051
2023-04-11T11:41:52.681Z,19051
2023-04-11T11:42:52.716Z,19674
2023-04-11T11:43:52.678Z,19513
2023-04-11T11:44:52.684Z,19803
2023-04-11T11:45:52.705Z,19617
2023-04-11T11:46:52.707Z,20337
2023-04-11T11:47:52.714Z,20310
2023-04-11T11:48:52.684Z,20452
2023-04-11T11:49:52.729Z,19670
2023-04-11T11:50:52.690Z,19718
2023-04-11T11:51:52.676Z,19307
2023-04-11T11:52:52.682Z,18970
2023-04-11T11:53:52.685Z,10576
2023-04-11T11:54:52.690Z,19303
2023-04-11T11:55:52.696Z,19113
2023-04-11T11:56:52.691Z,18933
2023-04-11T11:57:52.687Z,11731
2023-04-11T11:58:52.689Z,19989
2023-04-11T11:59:52.679Z,19624
2023-04-11T12:00:52.696Z,19001
2023-04-11T12:01:52.734Z,18280
2023-04-11T12:02:52.858Z,18286
2023-04-11T12:03:52.921Z,18111
2023-04-11T12:04:52.915Z,18091
2023-04-11T12:05:52.710Z,18000
2023-04-11T12:06:52.682Z,13825
2023-04-11T12:07:52.683Z,8683
2023-04-11T12:08:52.681Z,7498
2023-04-11T12:09:52.697Z,6652
2023-04-11T12:10:52.683Z,5920
2023-04-11T12:11:52.685Z,5306
2023-04-11T12:12:53.640Z,4748
2023-04-11T12:13:52.687Z,4274
2023-04-11T12:14:52.676Z,3808
2023-04-11T12:15:52.778Z,3325
2023-04-11T12:16:52.675Z,2731
2023-04-11T12:17:52.782Z,2025
2023-04-11T12:18:52.686Z,1286
2023-04-11T12:19:52.680Z,886
2023-04-11T12:20:52.714Z,888
2023-04-11T12:21:52.678Z,895
2023-04-11T12:22:54.650Z,895
2023-04-11T12:23:52.686Z,914
2023-04-11T12:25:25.481Z,855
2023-04-11T12:26:24.412Z,862
2023-04-11T12:27:24.376Z,888
2023-04-11T12:28:24.358Z,897
2023-04-11T12:29:26.268Z,928
2023-04-11T12:30:24.431Z,895
2023-04-11T12:31:24.426Z,906
2023-04-11T12:32:24.373Z,923
2023-04-11T12:33:24.361Z,930
2023-04-11T12:34:24.360Z,930
2023-04-11T12:35:24.347Z,1026
2023-04-11T12:36:24.395Z,1139
2023-04-11T12:37:24.346Z,1205
2023-04-11T12:38:24.354Z,1277
2023-04-11T12:39:24.352Z,1446
2023-04-11T12:40:24.398Z,1655
2023-04-11T12:42:12.420Z,2174
2023-04-11T12:43:11.337Z,2469
2023-04-11T12:44:28.848Z,2825
2023-04-11T12:45:27.724Z,2982
2023-04-11T12:46:27.711Z,3411
2023-04-11T12:47:27.762Z,3725
2023-04-11T12:48:27.693Z,3784
2023-04-11T12:49:27.717Z,4346
2023-04-11T12:50:27.714Z,5041
2023-04-11T12:51:27.729Z,5496
2023-04-11T12:52:27.804Z,5610
2023-04-11T12:53:27.701Z,5065
2023-04-11T12:54:27.689Z,3914
2023-04-11T12:55:27.826Z,3098
2023-04-11T12:56:27.699Z,2678
2023-04-11T12:57:27.696Z,2416
2023-04-11T12:58:27.749Z,2268
2023-04-11T12:59:27.688Z,2687
2023-04-11T13:00:27.688Z,3052
2023-04-11T13:01:27.765Z,3326
2023-04-11T13:02:29.602Z,3677
2023-04-11T13:03:27.844Z,3907
2023-04-11T13:04:27.795Z,3826
2023-04-11T13:05:27.687Z,3937
2023-04-11T13:06:27.692Z,4160
2023-04-11T13:07:27.695Z,4213
2023-04-11T13:08:27.697Z,4106
2023-04-11T13:09:27.694Z,3999
2023-04-11T13:10:27.704Z,4045
2023-04-11T13:11:27.693Z,4064
2023-04-11T13:12:27.717Z,4020
2023-04-11T13:13:27.701Z,3922
2023-04-11T13:14:27.683Z,3846
2023-04-11T13:15:27.694Z,3763
2023-04-11T13:16:27.751Z,3651
2023-04-11T13:17:27.733Z,3581
2023-04-11T13:18:27.684Z,3632
2023-04-11T13:19:27.698Z,3701
2023-04-11T13:20:27.686Z,3933
2023-04-11T13:21:27.694Z,4257
2023-04-11T13:22:27.705Z,4888
2023-04-11T13:23:27.686Z,5828
2023-04-11T13:24:27.695Z,6952
2023-04-11T13:25:27.715Z,8672
2023-04-11T13:26:27.701Z,12209
2023-04-11T13:27:27.710Z,14611
2023-04-11T13:28:27.706Z,13306
2023-04-11T13:29:27.707Z,16581
2023-04-11T13:30:27.683Z,16063
2023-04-11T13:31:27.713Z,16271
2023-04-11T13:32:27.784Z,16793
2023-04-11T13:33:27.703Z,16516
2023-04-11T13:34:27.713Z,17346
2023-04-11T13:35:27.735Z,18561
2023-04-11T13:36:27.731Z,16314
2023-04-11T13:37:27.702Z,18588
2023-04-11T13:38:27.688Z,19036
2023-04-11T13:39:27.696Z,18940
2023-04-11T13:40:27.703Z,15490
2023-04-11T13:41:27.694Z,15490
2023-04-11T13:42:27.708Z,15986
2023-04-11T13:43:27.701Z,17644
2023-04-11T13:44:27.690Z,16763
2023-04-11T13:45:27.734Z,16745
2023-04-11T13:46:27.700Z,16586
2023-04-11T13:47:27.751Z,15337
2023-04-11T13:48:27.694Z,14198
2023-04-11T13:49:27.697Z,13731
2023-04-11T13:50:27.694Z,14146